sensor_id;sensor_type;location;lat;lon;timestamp;pressure;altitude;pressure_sealevel;temperature;humidity
73952;BME280;62304;47.662;18.324;2023-03-23T00:01:42;100085.59;;;11.47;55.71
73952;BME280;62304;47.662;18.324;2023-03-23T00:04:44;100078.88;;;11.48;56.26
73952;BME280;62304;47.662;18.324;2023-03-23T00:07:47;100078.47;;;11.50;55.89
73952;BME280;62304;47.662;18.324;2023-03-23T00:10:53;100073.34;;;11.52;55.86
73952;BME280;62304;47.662;18.324;2023-03-23T00:14:00;100075.78;;;11.57;55.85
73952;BME280;62304;47.662;18.324;2023-03-23T00:17:02;100079.81;;;11.59;55.77
73952;BME280;62304;47.662;18.324;2023-03-23T00:20:05;100076.09;;;11.48;56.20
73952;BME280;62304;47.662;18.324;2023-03-23T00:23:08;100066.59;;;11.49;55.97
73952;BME280;62304;47.662;18.324;2023-03-23T00:26:10;100070.19;;;11.53;55.95
73952;BME280;62304;47.662;18.324;2023-03-23T00:29:18;100067.87;;;11.59;55.88
73952;BME280;62304;47.662;18.324;2023-03-23T00:32:24;100067.13;;;11.62;55.86
73952;BME280;62304;47.662;18.324;2023-03-23T00:35:30;100069.91;;;11.62;55.81
73952;BME280;62304;47.662;18.324;2023-03-23T00:38:31;100067.97;;;11.69;55.71
73952;BME280;62304;47.662;18.324;2023-03-23T00:41:33;100062.41;;;11.69;55.90
73952;BME280;62304;47.662;18.324;2023-03-23T00:44:37;100067.91;;;11.62;56.20
73952;BME280;62304;47.662;18.324;2023-03-23T00:47:39;100058.38;;;11.63;56.42
73952;BME280;62304;47.662;18.324;2023-03-23T00:50:42;100059.91;;;11.57;56.63
73952;BME280;62304;47.662;18.324;2023-03-23T00:53:45;100057.22;;;11.64;56.31
73952;BME280;62304;47.662;18.324;2023-03-23T00:56:47;100055.22;;;11.65;56.27
73952;BME280;62304;47.662;18.324;2023-03-23T00:59:50;100046.47;;;11.59;56.40
73952;BME280;62304;47.662;18.324;2023-03-23T01:02:55;100038.53;;;11.61;56.57
73952;BME280;62304;47.662;18.324;2023-03-23T01:06:04;100041.69;;;11.60;56.58
73952;BME280;62304;47.662;18.324;2023-03-23T01:09:10;100031.03;;;11.62;56.34
73952;BME280;62304;47.662;18.324;2023-03-23T01:12:13;100036.19;;;11.67;56.26
73952;BME280;62304;47.662;18.324;2023-03-23T01:15:16;100030.63;;;11.67;56.22
73952;BME280;62304;47.662;18.324;2023-03-23T01:18:18;100022.75;;;11.72;56.04
73952;BME280;62304;47.662;18.324;2023-03-23T01:21:21;100025.06;;;11.63;56.13
73952;BME280;62304;47.662;18.324;2023-03-23T01:24:23;100034.19;;;11.64;56.30
73952;BME280;62304;47.662;18.324;2023-03-23T01:27:24;100030.22;;;11.65;56.21
73952;BME280;62304;47.662;18.324;2023-03-23T01:30:26;100032.31;;;11.75;56.04
73952;BME280;62304;47.662;18.324;2023-03-23T01:33:29;100033.13;;;11.75;55.91
73952;BME280;62304;47.662;18.324;2023-03-23T01:36:32;100032.69;;;11.77;55.87
73952;BME280;62304;47.662;18.324;2023-03-23T01:39:37;100029.22;;;11.87;55.66
73952;BME280;62304;47.662;18.324;2023-03-23T01:42:39;100026.81;;;11.85;55.66
73952;BME280;62304;47.662;18.324;2023-03-23T01:45:41;100027.25;;;11.87;55.59
73952;BME280;62304;47.662;18.324;2023-03-23T01:48:43;100029.19;;;11.83;55.71
73952;BME280;62304;47.662;18.324;2023-03-23T01:51:50;100029.16;;;11.80;55.77
73952;BME280;62304;47.662;18.324;2023-03-23T01:54:54;100023.59;;;11.76;55.76
73952;BME280;62304;47.662;18.324;2023-03-23T01:57:58;100024.00;;;11.78;55.65
73952;BME280;62304;47.662;18.324;2023-03-23T02:01:03;100021.22;;;11.78;55.58
73952;BME280;62304;47.662;18.324;2023-03-23T02:04:06;100023.59;;;11.76;55.54
73952;BME280;62304;47.662;18.324;2023-03-23T02:07:12;100013.22;;;11.70;55.59
73952;BME280;62304;47.662;18.324;2023-03-23T02:10:16;100009.56;;;11.62;55.71
73952;BME280;62304;47.662;18.324;2023-03-23T02:13:18;100013.06;;;11.56;55.84
73952;BME280;62304;47.662;18.324;2023-03-23T02:26:02;100015.56;;;11.64;54.95
73952;BME280;62304;47.662;18.324;2023-03-23T02:29:46;100015.16;;;11.66;54.84
73952;BME280;62304;47.662;18.324;2023-03-23T02:36:25;100021.13;;;11.64;54.79
73952;BME280;62304;47.662;18.324;2023-03-23T02:39:37;100015.50;;;11.61;54.74
73952;BME280;62304;47.662;18.324;2023-03-23T02:42:46;100019.47;;;11.60;54.77
73952;BME280;62304;47.662;18.324;2023-03-23T02:45:51;100021.47;;;11.59;54.81
73952;BME280;62304;47.662;18.324;2023-03-23T02:48:55;100023.78;;;11.57;54.88
73952;BME280;62304;47.662;18.324;2023-03-23T02:51:59;100026.53;;;11.54;54.82
73952;BME280;62304;47.662;18.324;2023-03-23T02:55:04;100029.69;;;11.52;54.88
73952;BME280;62304;47.662;18.324;2023-03-23T02:58:06;100028.53;;;11.53;54.85
73952;BME280;62304;47.662;18.324;2023-03-23T03:04:39;100025.34;;;11.55;54.76
73952;BME280;62304;47.662;18.324;2023-03-23T03:07:49;100028.06;;;11.48;54.86
73952;BME280;62304;47.662;18.324;2023-03-23T03:11:05;100030.47;;;11.49;54.81
73952;BME280;62304;47.662;18.324;2023-03-23T03:14:19;100025.69;;;11.46;54.82
73952;BME280;62304;47.662;18.324;2023-03-23T03:17:25;100032.06;;;11.50;54.64
73952;BME280;62304;47.662;18.324;2023-03-23T03:20:28;100032.19;;;11.61;54.25
73952;BME280;62304;47.662;18.324;2023-03-23T03:23:32;100037.78;;;11.64;54.06
73952;BME280;62304;47.662;18.324;2023-03-23T03:26:38;100033.00;;;11.61;54.32
73952;BME280;62304;47.662;18.324;2023-03-23T03:29:47;100040.50;;;11.61;54.33
73952;BME280;62304;47.662;18.324;2023-03-23T03:32:53;100043.72;;;11.63;54.29
73952;BME280;62304;47.662;18.324;2023-03-23T03:35:55;100038.13;;;11.59;54.44
73952;BME280;62304;47.662;18.324;2023-03-23T03:38:58;100042.12;;;11.62;54.41
73952;BME280;62304;47.662;18.324;2023-03-23T03:42:00;100046.47;;;11.59;54.52
73952;BME280;62304;47.662;18.324;2023-03-23T03:45:03;100044.78;;;11.51;54.76
73952;BME280;62304;47.662;18.324;2023-03-23T03:48:05;100041.16;;;11.47;54.89
73952;BME280;62304;47.662;18.324;2023-03-23T03:51:07;100046.34;;;11.49;54.97
73952;BME280;62304;47.662;18.324;2023-03-23T03:54:10;100042.34;;;11.46;54.92
73952;BME280;62304;47.662;18.324;2023-03-23T03:57:13;100049.44;;;11.40;55.15
73952;BME280;62304;47.662;18.324;2023-03-23T04:00:18;100045.81;;;11.36;55.22
73952;BME280;62304;47.662;18.324;2023-03-23T04:03:20;100048.59;;;11.36;55.29
73952;BME280;62304;47.662;18.324;2023-03-23T04:06:22;100047.81;;;11.36;55.36
73952;BME280;62304;47.662;18.324;2023-03-23T04:09:26;100038.28;;;11.37;55.29
73952;BME280;62304;47.662;18.324;2023-03-23T04:12:28;100038.31;;;11.40;55.24
73952;BME280;62304;47.662;18.324;2023-03-23T04:15:33;100050.25;;;11.41;55.24
73952;BME280;62304;47.662;18.324;2023-03-23T04:18:35;100047.88;;;11.43;55.18
73952;BME280;62304;47.662;18.324;2023-03-23T04:21:38;100051.03;;;11.41;55.17
73952;BME280;62304;47.662;18.324;2023-03-23T04:24:39;100039.16;;;11.44;55.15
73952;BME280;62304;47.662;18.324;2023-03-23T04:27:42;100047.88;;;11.43;55.27
73952;BME280;62304;47.662;18.324;2023-03-23T04:30:46;100040.00;;;11.48;55.09
73952;BME280;62304;47.662;18.324;2023-03-23T04:33:51;100053.41;;;11.43;55.20
73952;BME280;62304;47.662;18.324;2023-03-23T04:36:54;100044.66;;;11.37;55.33
73952;BME280;62304;47.662;18.324;2023-03-23T04:39:58;100047.37;;;11.34;55.45
73952;BME280;62304;47.662;18.324;2023-03-23T04:43:08;100043.41;;;11.31;55.57
73952;BME280;62304;47.662;18.324;2023-03-23T04:46:11;100047.78;;;11.32;55.45
73952;BME280;62304;47.662;18.324;2023-03-23T04:49:19;100048.97;;;11.31;55.43
73952;BME280;62304;47.662;18.324;2023-03-23T04:52:24;100038.97;;;11.23;55.61
73952;BME280;62304;47.662;18.324;2023-03-23T04:55:27;100037.72;;;11.17;55.66
73952;BME280;62304;47.662;18.324;2023-03-23T04:58:30;100041.66;;;11.16;55.71
73952;BME280;62304;47.662;18.324;2023-03-23T05:01:35;100036.47;;;11.11;55.83
73952;BME280;62304;47.662;18.324;2023-03-23T05:04:41;100043.94;;;11.07;55.91
73952;BME280;62304;47.662;18.324;2023-03-23T05:07:43;100041.16;;;11.07;55.97
73952;BME280;62304;47.662;18.324;2023-03-23T05:10:58;100036.81;;;11.06;56.11
73952;BME280;62304;47.662;18.324;2023-03-23T05:14:03;100038.88;;;11.13;55.87
73952;BME280;62304;47.662;18.324;2023-03-23T05:17:06;100043.75;;;11.26;55.57
73952;BME280;62304;47.662;18.324;2023-03-23T05:20:15;100039.91;;;11.41;55.12
73952;BME280;62304;47.662;18.324;2023-03-23T05:23:22;100044.09;;;11.61;54.72
73952;BME280;62304;47.662;18.324;2023-03-23T05:26:27;100048.84;;;11.61;54.60
73952;BME280;62304;47.662;18.324;2023-03-23T05:29:33;100046.78;;;11.54;54.90
73952;BME280;62304;47.662;18.324;2023-03-23T05:32:37;100045.97;;;11.54;54.76
73952;BME280;62304;47.662;18.324;2023-03-23T05:35:40;100050.53;;;11.72;54.34
73952;BME280;62304;47.662;18.324;2023-03-23T05:38:42;100041.06;;;11.80;54.07
73952;BME280;62304;47.662;18.324;2023-03-23T05:41:47;100050.75;;;12.00;53.85
73952;BME280;62304;47.662;18.324;2023-03-23T05:44:49;100046.91;;;12.19;53.04
73952;BME280;62304;47.662;18.324;2023-03-23T05:47:52;100050.91;;;12.25;53.07
73952;BME280;62304;47.662;18.324;2023-03-23T05:50:54;100055.75;;;12.35;53.11
73952;BME280;62304;47.662;18.324;2023-03-23T05:53:57;100052.59;;;12.40;52.75
73952;BME280;62304;47.662;18.324;2023-03-23T05:56:59;100055.03;;;12.48;52.47
73952;BME280;62304;47.662;18.324;2023-03-23T06:00:01;100049.47;;;12.55;52.53
73952;BME280;62304;47.662;18.324;2023-03-23T06:03:16;100053.87;;;12.60;52.46
73952;BME280;62304;47.662;18.324;2023-03-23T06:06:18;100052.75;;;12.78;51.67
73952;BME280;62304;47.662;18.324;2023-03-23T06:09:21;100060.47;;;13.09;51.08
73952;BME280;62304;47.662;18.324;2023-03-23T06:12:26;100057.75;;;13.65;49.66
73952;BME280;62304;47.662;18.324;2023-03-23T06:15:30;100054.56;;;13.84;48.77
73952;BME280;62304;47.662;18.324;2023-03-23T06:18:35;100056.91;;;14.17;48.33
73952;BME280;62304;47.662;18.324;2023-03-23T06:21:38;100048.94;;;14.44;47.50
73952;BME280;62304;47.662;18.324;2023-03-23T06:24:41;100052.00;;;14.74;46.85
73952;BME280;62304;47.662;18.324;2023-03-23T06:27:43;100059.47;;;15.01;46.04
73952;BME280;62304;47.662;18.324;2023-03-23T06:30:47;100052.72;;;14.95;46.25
73952;BME280;62304;47.662;18.324;2023-03-23T06:33:49;100059.09;;;14.92;45.96
73952;BME280;62304;47.662;18.324;2023-03-23T06:36:52;100051.44;;;15.10;45.44
73952;BME280;62304;47.662;18.324;2023-03-23T06:39:55;100057.34;;;15.33;44.90
73952;BME280;62304;47.662;18.324;2023-03-23T06:42:58;100049.94;;;15.60;44.31
73952;BME280;62304;47.662;18.324;2023-03-23T06:46:02;100063.84;;;15.71;44.13
73952;BME280;62304;47.662;18.324;2023-03-23T06:49:06;100061.50;;;15.62;43.78
73952;BME280;62304;47.662;18.324;2023-03-23T06:52:09;100062.19;;;15.77;43.40
73952;BME280;62304;47.662;18.324;2023-03-23T06:55:11;100061.59;;;16.03;42.68
73952;BME280;62304;47.662;18.324;2023-03-23T06:58:14;100062.03;;;16.35;42.01
73952;BME280;62304;47.662;18.324;2023-03-23T07:01:16;100063.53;;;16.83;40.94
73952;BME280;62304;47.662;18.324;2023-03-23T07:04:19;100072.97;;;16.96;40.32
73952;BME280;62304;47.662;18.324;2023-03-23T07:07:21;100080.09;;;17.04;40.08
73952;BME280;62304;47.662;18.324;2023-03-23T07:10:24;100080.75;;;16.82;40.15
73952;BME280;62304;47.662;18.324;2023-03-23T07:13:26;100083.34;;;16.99;39.96
73952;BME280;62304;47.662;18.324;2023-03-23T07:16:29;100091.37;;;17.27;39.56
73952;BME280;62304;47.662;18.324;2023-03-23T07:19:32;100094.66;;;17.52;39.06
73952;BME280;62304;47.662;18.324;2023-03-23T07:22:34;100091.87;;;18.02;38.55
73952;BME280;62304;47.662;18.324;2023-03-23T07:25:38;100087.63;;;17.67;38.34
73952;BME280;62304;47.662;18.324;2023-03-23T07:28:41;100090.16;;;17.85;38.19
73952;BME280;62304;47.662;18.324;2023-03-23T07:31:44;100084.69;;;18.01;37.71
73952;BME280;62304;47.662;18.324;2023-03-23T07:34:46;100089.97;;;18.64;36.71
73952;BME280;62304;47.662;18.324;2023-03-23T07:37:49;100091.31;;;18.56;36.69
73952;BME280;62304;47.662;18.324;2023-03-23T07:40:51;100093.81;;;18.74;36.45
73952;BME280;62304;47.662;18.324;2023-03-23T07:43:54;100097.03;;;18.92;35.97
73952;BME280;62304;47.662;18.324;2023-03-23T07:46:56;100107.31;;;19.21;35.92
73952;BME280;62304;47.662;18.324;2023-03-23T07:50:01;100112.56;;;19.74;35.13
73952;BME280;62304;47.662;18.324;2023-03-23T07:53:04;100110.63;;;20.03;34.48
73952;BME280;62304;47.662;18.324;2023-03-23T07:56:07;100107.44;;;20.21;33.77
73952;BME280;62304;47.662;18.324;2023-03-23T07:59:11;100107.84;;;20.35;33.54
73952;BME280;62304;47.662;18.324;2023-03-23T08:02:14;100104.91;;;20.83;33.18
73952;BME280;62304;47.662;18.324;2023-03-23T08:05:17;100105.19;;;21.29;32.54
73952;BME280;62304;47.662;18.324;2023-03-23T08:08:20;100101.53;;;21.04;32.88
73952;BME280;62304;47.662;18.324;2023-03-23T08:11:23;100104.75;;;20.45;33.21
73952;BME280;62304;47.662;18.324;2023-03-23T08:14:25;100107.63;;;20.58;33.40
73952;BME280;62304;47.662;18.324;2023-03-23T08:17:30;100115.44;;;20.66;32.56
73952;BME280;62304;47.662;18.324;2023-03-23T08:20:32;100099.25;;;21.65;31.73
73952;BME280;62304;47.662;18.324;2023-03-23T08:23:37;100107.34;;;21.91;31.46
73952;BME280;62304;47.662;18.324;2023-03-23T08:26:39;100106.31;;;21.73;31.67
73952;BME280;62304;47.662;18.324;2023-03-23T08:29:46;100105.41;;;21.76;31.84
73952;BME280;62304;47.662;18.324;2023-03-23T08:32:50;100099.88;;;21.97;31.49
73952;BME280;62304;47.662;18.324;2023-03-23T08:35:57;100103.47;;;22.91;30.27
73952;BME280;62304;47.662;18.324;2023-03-23T08:39:00;100095.16;;;22.41;30.45
73952;BME280;62304;47.662;18.324;2023-03-23T08:42:02;100089.91;;;23.81;29.16
73952;BME280;62304;47.662;18.324;2023-03-23T08:45:07;100092.09;;;23.46;28.91
73952;BME280;62304;47.662;18.324;2023-03-23T08:48:10;100091.59;;;22.03;31.31
73952;BME280;62304;47.662;18.324;2023-03-23T08:51:12;100088.37;;;23.58;29.45
73952;BME280;62304;47.662;18.324;2023-03-23T08:54:15;100084.66;;;22.97;29.90
73952;BME280;62304;47.662;18.324;2023-03-23T08:57:18;100087.25;;;23.04;30.14
73952;BME280;62304;47.662;18.324;2023-03-23T09:00:21;100085.41;;;23.31;29.65
73952;BME280;62304;47.662;18.324;2023-03-23T09:03:27;100092.38;;;22.96;30.00
73952;BME280;62304;47.662;18.324;2023-03-23T09:06:30;100089.28;;;22.48;30.68
73952;BME280;62304;47.662;18.324;2023-03-23T09:09:32;100085.81;;;22.31;31.14
73952;BME280;62304;47.662;18.324;2023-03-23T09:12:36;100087.87;;;21.93;31.45
73952;BME280;62304;47.662;18.324;2023-03-23T09:15:37;100076.16;;;21.95;31.23
73952;BME280;62304;47.662;18.324;2023-03-23T09:18:39;100082.09;;;22.22;30.89
73952;BME280;62304;47.662;18.324;2023-03-23T09:21:41;100088.94;;;21.74;30.60
73952;BME280;62304;47.662;18.324;2023-03-23T09:24:44;100090.34;;;21.54;31.44
73952;BME280;62304;47.662;18.324;2023-03-23T09:27:51;100089.88;;;21.55;31.57
73952;BME280;62304;47.662;18.324;2023-03-23T09:30:55;100072.03;;;21.33;31.53
73952;BME280;62304;47.662;18.324;2023-03-23T09:34:00;100070.66;;;21.13;31.85
73952;BME280;62304;47.662;18.324;2023-03-23T09:37:04;100076.84;;;21.08;31.96
73952;BME280;62304;47.662;18.324;2023-03-23T09:40:12;100063.41;;;20.99;32.18
73952;BME280;62304;47.662;18.324;2023-03-23T09:46:51;100052.56;;;20.98;32.41
73952;BME280;62304;47.662;18.324;2023-03-23T09:50:16;100068.19;;;20.86;32.37
73952;BME280;62304;47.662;18.324;2023-03-23T09:53:25;100054.59;;;20.69;32.34
73952;BME280;62304;47.662;18.324;2023-03-23T09:56:31;100051.50;;;20.63;32.49
73952;BME280;62304;47.662;18.324;2023-03-23T09:59:39;100062.22;;;20.68;32.69
73952;BME280;62304;47.662;18.324;2023-03-23T10:02:54;100056.19;;;20.54;33.18
73952;BME280;62304;47.662;18.324;2023-03-23T10:05:58;100056.84;;;20.45;33.58
73952;BME280;62304;47.662;18.324;2023-03-23T10:09:03;100051.78;;;20.24;34.01
73952;BME280;62304;47.662;18.324;2023-03-23T10:15:29;100065.44;;;20.10;33.81
73952;BME280;62304;47.662;18.324;2023-03-23T10:18:43;100056.63;;;20.24;33.97
73952;BME280;62304;47.662;18.324;2023-03-23T10:21:51;100068.53;;;20.44;33.82
73952;BME280;62304;47.662;18.324;2023-03-23T10:28:17;100063.38;;;20.71;32.75
73952;BME280;62304;47.662;18.324;2023-03-23T10:31:37;100062.19;;;20.84;32.31
73952;BME280;62304;47.662;18.324;2023-03-23T10:37:50;100061.22;;;21.44;31.59
73952;BME280;62304;47.662;18.324;2023-03-23T10:41:02;100055.22;;;21.30;32.10
73952;BME280;62304;47.662;18.324;2023-03-23T10:44:19;100038.25;;;20.76;32.91
73952;BME280;62304;47.662;18.324;2023-03-23T10:47:21;100040.31;;;20.48;33.47
73952;BME280;62304;47.662;18.324;2023-03-23T10:50:32;100043.59;;;20.30;33.88
73952;BME280;62304;47.662;18.324;2023-03-23T10:53:42;100040.78;;;20.30;34.14
73952;BME280;62304;47.662;18.324;2023-03-23T10:56:45;100044.97;;;20.38;33.90
73952;BME280;62304;47.662;18.324;2023-03-23T10:59:47;100031.72;;;20.79;33.46
73952;BME280;62304;47.662;18.324;2023-03-23T11:03:05;100037.75;;;20.94;33.22
73952;BME280;62304;47.662;18.324;2023-03-23T11:06:29;100037.44;;;21.83;31.93
73952;BME280;62304;47.662;18.324;2023-03-23T11:09:40;100034.47;;;22.88;30.15
73952;BME280;62304;47.662;18.324;2023-03-23T11:12:56;100031.06;;;23.15;29.73
73952;BME280;62304;47.662;18.324;2023-03-23T11:16:00;100023.37;;;22.94;29.84
73952;BME280;62304;47.662;18.324;2023-03-23T11:19:30;100010.34;;;22.53;30.56
73952;BME280;62304;47.662;18.324;2023-03-23T11:22:33;100016.53;;;23.04;29.92
73952;BME280;62304;47.662;18.324;2023-03-23T11:25:53;100007.69;;;23.54;28.86
73952;BME280;62304;47.662;18.324;2023-03-23T11:29:04;100001.56;;;24.04;28.64
73952;BME280;62304;47.662;18.324;2023-03-23T11:32:10;100004.56;;;24.18;28.07
73952;BME280;62304;47.662;18.324;2023-03-23T11:35:20;100002.53;;;24.37;28.08
73952;BME280;62304;47.662;18.324;2023-03-23T11:38:24;99995.28;;;24.36;28.12
73952;BME280;62304;47.662;18.324;2023-03-23T11:41:33;99996.66;;;23.95;28.10
73952;BME280;62304;47.662;18.324;2023-03-23T11:44:41;99986.03;;;23.78;28.42
73952;BME280;62304;47.662;18.324;2023-03-23T11:54:31;99991.81;;;24.50;27.79
73952;BME280;62304;47.662;18.324;2023-03-23T11:57:34;99983.47;;;24.28;28.23
73952;BME280;62304;47.662;18.324;2023-03-23T12:00:43;99984.72;;;24.36;27.78
73952;BME280;62304;47.662;18.324;2023-03-23T12:03:59;99974.38;;;24.60;27.44
73952;BME280;62304;47.662;18.324;2023-03-23T12:07:26;99983.44;;;25.00;27.52
73952;BME280;62304;47.662;18.324;2023-03-23T12:14:24;99988.84;;;25.40;26.83
73952;BME280;62304;47.662;18.324;2023-03-23T12:17:55;99977.34;;;24.75;26.60
73952;BME280;62304;47.662;18.324;2023-03-23T12:31:08;99957.13;;;24.91;26.42
73952;BME280;62304;47.662;18.324;2023-03-23T12:34:33;99958.59;;;24.59;27.13
73952;BME280;62304;47.662;18.324;2023-03-23T12:44:03;99954.00;;;25.39;26.31
73952;BME280;62304;47.662;18.324;2023-03-23T12:50:20;99948.78;;;25.38;26.46
73952;BME280;62304;47.662;18.324;2023-03-23T12:53:35;99940.47;;;25.25;26.34
73952;BME280;62304;47.662;18.324;2023-03-23T12:56:58;99941.03;;;24.97;27.10
73952;BME280;62304;47.662;18.324;2023-03-23T13:00:06;99940.28;;;24.78;27.23
73952;BME280;62304;47.662;18.324;2023-03-23T13:12:47;99917.91;;;24.80;27.10
73952;BME280;62304;47.662;18.324;2023-03-23T13:22:23;99914.31;;;24.44;27.71
73952;BME280;62304;47.662;18.324;2023-03-23T13:31:51;99911.03;;;24.36;27.45
73952;BME280;62304;47.662;18.324;2023-03-23T13:34:53;99904.03;;;23.65;28.80
73952;BME280;62304;47.662;18.324;2023-03-23T13:37:55;99910.03;;;23.19;29.64
73952;BME280;62304;47.662;18.324;2023-03-23T13:40:57;99905.06;;;23.41;29.40
73952;BME280;62304;47.662;18.324;2023-03-23T13:44:38;99891.66;;;24.08;28.65
73952;BME280;62304;47.662;18.324;2023-03-23T13:47:41;99893.87;;;24.13;28.60
73952;BME280;62304;47.662;18.324;2023-03-23T13:50:52;99891.53;;;23.36;29.29
73952;BME280;62304;47.662;18.324;2023-03-23T13:54:06;99892.88;;;23.13;29.89
73952;BME280;62304;47.662;18.324;2023-03-23T14:03:41;99880.84;;;22.18;31.31
73952;BME280;62304;47.662;18.324;2023-03-23T14:06:47;99884.88;;;22.38;31.33
73952;BME280;62304;47.662;18.324;2023-03-23T14:09:50;99878.66;;;22.65;30.84
73952;BME280;62304;47.662;18.324;2023-03-23T14:12:53;99886.63;;;22.88;30.58
73952;BME280;62304;47.662;18.324;2023-03-23T14:19:00;99897.22;;;23.45;30.11
73952;BME280;62304;47.662;18.324;2023-03-23T14:22:02;99900.06;;;23.45;30.39
73952;BME280;62304;47.662;18.324;2023-03-23T14:25:12;99908.97;;;22.95;30.68
73952;BME280;62304;47.662;18.324;2023-03-23T14:28:21;99897.97;;;23.27;30.72
73952;BME280;62304;47.662;18.324;2023-03-23T14:31:25;99898.03;;;23.54;30.43
73952;BME280;62304;47.662;18.324;2023-03-23T14:34:30;99897.81;;;23.31;30.48
73952;BME280;62304;47.662;18.324;2023-03-23T14:37:33;99902.09;;;23.05;30.79
73952;BME280;62304;47.662;18.324;2023-03-23T14:40:37;99902.09;;;22.44;31.35
73952;BME280;62304;47.662;18.324;2023-03-23T14:43:39;99897.28;;;22.32;31.95
73952;BME280;62304;47.662;18.324;2023-03-23T14:46:43;99882.59;;;22.03;32.17
73952;BME280;62304;47.662;18.324;2023-03-23T14:49:45;99886.53;;;21.84;32.53
73952;BME280;62304;47.662;18.324;2023-03-23T14:52:48;99887.53;;;21.65;33.16
73952;BME280;62304;47.662;18.324;2023-03-23T14:55:53;99881.72;;;21.72;33.29
73952;BME280;62304;47.662;18.324;2023-03-23T14:59:03;99865.09;;;21.74;33.00
73952;BME280;62304;47.662;18.324;2023-03-23T15:02:08;99873.78;;;21.67;33.32
73952;BME280;62304;47.662;18.324;2023-03-23T15:05:27;99859.44;;;21.61;33.42
73952;BME280;62304;47.662;18.324;2023-03-23T15:08:32;99867.47;;;21.63;33.49
73952;BME280;62304;47.662;18.324;2023-03-23T15:11:37;99862.59;;;21.76;33.44
73952;BME280;62304;47.662;18.324;2023-03-23T15:14:49;99859.28;;;21.90;33.10
73952;BME280;62304;47.662;18.324;2023-03-23T15:17:52;99861.69;;;22.00;33.20
73952;BME280;62304;47.662;18.324;2023-03-23T15:20:54;99866.41;;;21.82;33.17
73952;BME280;62304;47.662;18.324;2023-03-23T15:23:57;99862.41;;;21.58;33.39
73952;BME280;62304;47.662;18.324;2023-03-23T15:30:37;99866.19;;;21.17;33.99
73952;BME280;62304;47.662;18.324;2023-03-23T15:33:39;99864.19;;;21.05;34.30
73952;BME280;62304;47.662;18.324;2023-03-23T15:36:41;99861.50;;;20.89;34.55
73952;BME280;62304;47.662;18.324;2023-03-23T15:39:45;99862.13;;;20.81;34.84
73952;BME280;62304;47.662;18.324;2023-03-23T15:42:49;99862.38;;;20.74;35.00
73952;BME280;62304;47.662;18.324;2023-03-23T15:46:03;99862.81;;;20.72;35.30
73952;BME280;62304;47.662;18.324;2023-03-23T15:49:11;99871.72;;;20.71;35.61
73952;BME280;62304;47.662;18.324;2023-03-23T15:52:15;99877.34;;;20.71;35.73
73952;BME280;62304;47.662;18.324;2023-03-23T15:55:28;99876.69;;;20.67;35.73
73952;BME280;62304;47.662;18.324;2023-03-23T15:58:31;99876.31;;;20.65;36.02
73952;BME280;62304;47.662;18.324;2023-03-23T16:01:37;99876.44;;;20.61;36.22
73952;BME280;62304;47.662;18.324;2023-03-23T16:04:41;99882.62;;;20.56;36.35
73952;BME280;62304;47.662;18.324;2023-03-23T16:07:49;99874.72;;;20.51;36.44
73952;BME280;62304;47.662;18.324;2023-03-23T16:10:52;99877.22;;;20.49;36.73
73952;BME280;62304;47.662;18.324;2023-03-23T16:13:55;99881.84;;;20.43;37.07
73952;BME280;62304;47.662;18.324;2023-03-23T16:16:59;99876.31;;;20.40;36.74
73952;BME280;62304;47.662;18.324;2023-03-23T16:20:10;99881.78;;;20.31;36.98
73952;BME280;62304;47.662;18.324;2023-03-23T16:23:14;99878.06;;;20.22;37.62
73952;BME280;62304;47.662;18.324;2023-03-23T16:26:17;99881.53;;;20.13;37.17
73952;BME280;62304;47.662;18.324;2023-03-23T16:29:20;99874.56;;;20.01;37.39
73952;BME280;62304;47.662;18.324;2023-03-23T16:32:44;99876.34;;;19.95;37.60
73952;BME280;62304;47.662;18.324;2023-03-23T16:35:48;99879.31;;;19.76;38.00
73952;BME280;62304;47.662;18.324;2023-03-23T16:38:52;99887.69;;;19.63;38.22
73952;BME280;62304;47.662;18.324;2023-03-23T16:41:56;99878.81;;;19.49;38.54
73952;BME280;62304;47.662;18.324;2023-03-23T16:44:59;99894.31;;;19.41;38.92
73952;BME280;62304;47.662;18.324;2023-03-23T16:48:03;99897.47;;;19.27;39.01
73952;BME280;62304;47.662;18.324;2023-03-23T16:51:07;99901.47;;;19.10;39.33
73952;BME280;62304;47.662;18.324;2023-03-23T16:54:10;99901.37;;;18.98;39.78
73952;BME280;62304;47.662;18.324;2023-03-23T16:57:13;99890.38;;;18.87;40.05
73952;BME280;62304;47.662;18.324;2023-03-23T17:00:17;99899.00;;;18.80;40.22
73952;BME280;62304;47.662;18.324;2023-03-23T17:03:26;99898.88;;;18.68;40.73
73952;BME280;62304;47.662;18.324;2023-03-23T17:06:30;99902.34;;;18.56;40.90
73952;BME280;62304;47.662;18.324;2023-03-23T17:09:33;99902.56;;;18.45;41.22
73952;BME280;62304;47.662;18.324;2023-03-23T17:12:36;99912.38;;;18.37;41.48
73952;BME280;62304;47.662;18.324;2023-03-23T17:15:40;99913.84;;;18.22;41.88
73952;BME280;62304;47.662;18.324;2023-03-23T20:56:19;99973.94;;;14.53;53.50
73952;BME280;62304;47.662;18.324;2023-03-23T20:59:25;99976.75;;;14.49;53.16
73952;BME280;62304;47.662;18.324;2023-03-23T21:02:30;99986.69;;;14.50;53.26
73952;BME280;62304;47.662;18.324;2023-03-23T21:05:40;99986.72;;;14.47;53.61
73952;BME280;62304;47.662;18.324;2023-03-23T21:08:44;99983.50;;;14.52;53.27
73952;BME280;62304;47.662;18.324;2023-03-23T21:12:09;99983.13;;;14.53;53.19
73952;BME280;62304;47.662;18.324;2023-03-23T21:15:13;99985.13;;;14.49;53.25